Time;durP1;ratioP1;P1;durP2;ratioP2;P2;SDS_P1;SDS_P2;PMS_P1;PMS_P2;Temp;Humidity;BMP_temperature;BMP_pressure;BME280_temperature;BME280_humidity;BME280_pressure;Samples;Min_cycle;Max_cycle;Signal;HPM_P1;HPM_P2
2021/12/19 00:10:31;;;;;;;16.17;6.53;;;3.60;99.90;;;;;;5136550;27;20755;-58
2021/12/19 00:12:59;;;;;;;11.57;5.33;;;3.60;99.90;;;;;;5137307;27;20493;-58
2021/12/19 00:15:27;;;;;;;10.93;6.00;;;3.60;99.90;;;;;;5135789;27;20858;-58
2021/12/19 00:17:54;;;;;;;16.57;6.83;;;3.50;99.90;;;;;;5137008;27;20430;-58
2021/12/19 00:20:25;;;;;;;13.83;7.20;;;3.50;99.90;;;;;;5137468;27;20518;-58
2021/12/19 00:22:52;;;;;;;11.27;4.93;;;3.60;99.90;;;;;;5136769;27;20475;-58
2021/12/19 00:25:27;;;;;;;15.00;6.47;;;3.60;99.90;;;;;;5136972;27;20469;-58
2021/12/19 00:27:54;;;;;;;12.03;5.90;;;3.50;99.90;;;;;;5136352;27;20749;-58
2021/12/19 00:30:21;;;;;;;16.97;5.77;;;3.40;99.90;;;;;;5135109;27;20518;-58
2021/12/19 00:32:48;;;;;;;12.37;5.00;;;3.30;99.90;;;;;;5135630;27;20448;-59
2021/12/19 00:35:15;;;;;;;12.70;4.80;;;3.30;99.90;;;;;;5134467;27;20536;-58
2021/12/19 00:37:44;;;;;;;12.03;5.20;;;3.30;99.90;;;;;;5134274;27;20430;-59
2021/12/19 00:40:12;;;;;;;14.27;5.10;;;3.40;99.90;;;;;;5133795;27;20483;-59
2021/12/19 00:42:39;;;;;;;17.30;7.07;;;3.40;99.90;;;;;;5135494;27;20452;-58
2021/12/19 00:45:16;;;;;;;13.47;5.77;;;3.50;99.90;;;;;;5135769;27;20436;-58
2021/12/19 00:47:50;;;;;;;13.13;6.17;;;3.40;99.90;;;;;;5137018;27;20916;-58
2021/12/19 00:50:22;;;;;;;14.07;5.03;;;3.50;99.90;;;;;;5137059;27;20754;-58
2021/12/19 00:52:50;;;;;;;16.37;5.87;;;3.50;99.90;;;;;;5136914;27;20543;-58
2021/12/19 00:55:20;;;;;;;16.87;6.07;;;3.60;99.90;;;;;;5137401;27;20566;-59
2021/12/19 00:57:47;;;;;;;15.73;7.27;;;3.50;99.90;;;;;;5137766;27;20479;-59
2021/12/19 01:00:18;;;;;;;16.60;6.47;;;3.60;99.90;;;;;;5135879;27;20509;-59
2021/12/19 01:02:45;;;;;;;17.17;6.53;;;3.60;99.90;;;;;;5135023;27;20529;-59
2021/12/19 01:05:12;;;;;;;12.90;6.63;;;3.70;99.90;;;;;;5136413;27;20432;-58
2021/12/19 01:07:39;;;;;;;12.43;5.50;;;3.80;99.90;;;;;;5134802;27;20491;-58
2021/12/19 01:10:09;;;;;;;20.10;7.83;;;3.80;99.90;;;;;;5135253;27;20486;-58
2021/12/19 01:12:38;;;;;;;17.83;8.23;;;3.70;99.90;;;;;;5134199;27;20462;-58
2021/12/19 01:15:09;;;;;;;12.67;6.47;;;3.70;99.90;;;;;;5134710;27;20475;-58
2021/12/19 01:17:37;;;;;;;16.80;6.30;;;3.60;99.90;;;;;;5133812;27;20430;-58
2021/12/19 01:20:06;;;;;;;18.10;6.50;;;3.50;99.90;;;;;;5133647;27;20458;-59
2021/12/19 01:22:33;;;;;;;14.57;6.67;;;3.50;99.90;;;;;;5134401;27;20989;-58
2021/12/19 01:25:01;;;;;;;17.47;6.10;;;3.60;99.90;;;;;;5135317;27;20444;-58
2021/12/19 01:27:29;;;;;;;20.03;7.37;;;3.80;99.90;;;;;;5135388;27;20546;-59
2021/12/19 01:29:57;;;;;;;17.47;7.77;;;3.70;99.90;;;;;;5135994;27;20534;-59
2021/12/19 01:32:25;;;;;;;15.20;7.10;;;3.50;99.90;;;;;;5135241;27;20470;-59
2021/12/19 01:34:52;;;;;;;14.20;5.60;;;3.40;99.90;;;;;;5135575;27;20438;-60
2021/12/19 01:37:19;;;;;;;17.90;5.33;;;3.50;99.90;;;;;;5135960;27;20448;-59
2021/12/19 01:39:46;;;;;;;16.17;6.60;;;3.50;99.90;;;;;;5136500;28;20438;-58
2021/12/19 01:42:13;;;;;;;14.83;6.17;;;3.50;99.90;;;;;;5135755;28;20512;-58
2021/12/19 01:44:44;;;;;;;14.40;5.90;;;3.40;99.90;;;;;;5135556;28;20455;-58
2021/12/19 01:47:11;;;;;;;17.57;6.10;;;3.40;99.90;;;;;;5136520;28;20497;-58
2021/12/19 01:49:38;;;;;;;8.13;4.83;;;3.20;99.90;;;;;;5136022;28;20414;-59
2021/12/19 01:52:07;;;;;;;13.50;4.53;;;3.20;99.90;;;;;;5136798;28;20785;-58
2021/12/19 01:54:34;;;;;;;13.20;4.47;;;3.20;99.90;;;;;;5136104;28;20467;-58
2021/12/19 01:57:01;;;;;;;13.57;5.33;;;3.10;99.90;;;;;;5137274;28;20545;-59
2021/12/19 01:59:28;;;;;;;11.83;4.00;;;3.30;99.90;;;;;;5137240;28;20478;-59
2021/12/19 02:02:00;;;;;;;16.30;5.50;;;3.20;99.90;;;;;;5136631;28;20563;-60
2021/12/19 02:04:30;;;;;;;15.13;4.47;;;3.10;99.90;;;;;;5136152;28;20487;-59
2021/12/19 02:06:57;;;;;;;16.40;6.50;;;3.30;99.90;;;;;;5135789;28;20429;-60
2021/12/19 02:09:25;;;;;;;16.93;6.10;;;3.40;99.90;;;;;;5135579;28;20494;-60
2021/12/19 02:11:52;;;;;;;12.30;5.03;;;3.20;99.90;;;;;;5135785;28;20760;-58
2021/12/19 02:14:20;;;;;;;10.20;4.03;;;3.20;99.90;;;;;;5136013;28;20962;-58
2021/12/19 02:16:47;;;;;;;13.67;4.27;;;3.20;99.90;;;;;;5138329;27;20500;-58
2021/12/19 02:19:16;;;;;;;15.30;4.47;;;3.10;99.90;;;;;;5140078;27;20900;-59
2021/12/19 02:21:44;;;;;;;14.80;4.40;;;3.20;99.90;;;;;;5140505;27;20936;-59
2021/12/19 02:24:13;;;;;;;13.90;4.90;;;3.40;99.90;;;;;;5140848;27;20814;-58
2021/12/19 02:26:40;;;;;;;11.30;4.10;;;3.40;99.90;;;;;;5141009;27;20453;-59
2021/12/19 02:29:08;;;;;;;5.77;2.77;;;3.40;99.90;;;;;;5139758;27;20792;-59
2021/12/19 02:31:35;;;;;;;9.30;3.27;;;3.50;99.90;;;;;;5140302;27;20538;-59
2021/12/19 02:34:06;;;;;;;8.27;3.77;;;3.60;99.90;;;;;;5140409;27;20811;-58
2021/12/19 02:36:50;;;;;;;11.87;3.00;;;3.80;99.90;;;;;;5139891;27;20578;-58
2021/12/19 02:50:18;;;;;;;9.70;2.40;;;3.40;99.90;;;;;;5138300;27;20732;-58
2021/12/19 02:52:45;;;;;;;7.93;2.83;;;3.40;99.90;;;;;;5138736;27;20518;-58
2021/12/19 02:55:15;;;;;;;9.97;4.10;;;3.50;99.90;;;;;;5139810;27;20450;-58
2021/12/19 02:57:43;;;;;;;15.30;4.97;;;3.70;99.90;;;;;;5139929;27;20542;-61
2021/12/19 03:00:11;;;;;;;6.03;2.63;;;3.60;99.90;;;;;;5140441;27;20422;-58
2021/12/19 03:02:38;;;;;;;3.20;2.03;;;3.60;99.90;;;;;;5140027;27;20475;-58
2021/12/19 03:05:07;;;;;;;4.70;1.90;;;3.60;99.90;;;;;;5138773;27;20725;-58
2021/12/19 03:07:39;;;;;;;11.10;3.07;;;3.40;99.90;;;;;;5137908;27;20546;-58
2021/12/19 03:10:27;;;;;;;5.33;1.73;;;3.20;99.90;;;;;;5138412;27;20744;-59
2021/12/19 03:13:06;;;;;;;6.10;1.83;;;3.10;99.90;;;;;;5138767;27;20448;-58
2021/12/19 03:18:23;;;;;;;8.07;2.70;;;3.40;99.90;;;;;;5079218;27;20449;-58
2021/12/19 03:20:49;;;;;;;2.27;1.10;;;3.40;99.90;;;;;;5138473;27;20930;-58
2021/12/19 03:23:16;;;;;;;7.10;1.97;;;3.40;99.90;;;;;;5139664;27;20950;-58
2021/12/19 03:25:43;;;;;;;5.33;1.53;;;3.30;99.90;;;;;;5139371;27;20505;-59
2021/12/19 03:28:13;;;;;;;3.40;1.30;;;3.40;99.90;;;;;;5137900;27;20432;-58
2021/12/19 03:30:43;;;;;;;5.30;1.70;;;3.60;99.90;;;;;;5139447;27;20522;-58
2021/12/19 03:33:10;;;;;;;4.37;1.60;;;3.60;99.90;;;;;;5138759;27;20904;-59
2021/12/19 03:35:38;;;;;;;8.60;2.27;;;3.40;99.90;;;;;;5138888;27;20455;-60
2021/12/19 03:38:07;;;;;;;4.33;1.13;;;3.20;99.90;;;;;;5139001;27;20818;-59
2021/12/19 03:40:40;;;;;;;3.50;1.40;;;3.10;99.90;;;;;;5139098;27;20472;-59
2021/12/19 03:43:10;;;;;;;6.13;2.33;;;3.10;99.90;;;;;;5139244;27;20495;-58
2021/12/19 03:45:39;;;;;;;5.80;1.90;;;2.90;99.90;;;;;;5138763;27;20505;-59
2021/12/19 03:48:11;;;;;;;7.00;2.10;;;2.80;99.90;;;;;;5139157;27;20447;-58
2021/12/19 03:50:38;;;;;;;6.30;1.90;;;2.70;99.90;;;;;;5138672;27;20452;-60
2021/12/19 03:53:05;;;;;;;3.83;1.30;;;2.60;99.90;;;;;;5138701;27;20453;-59
2021/12/19 03:55:32;;;;;;;7.43;1.43;;;2.60;99.90;;;;;;5120047;27;20443;-59
2021/12/19 03:58:00;;;;;;;4.40;1.50;;;2.60;99.90;;;;;;5138585;27;20542;-58
2021/12/19 04:00:28;;;;;;;5.63;1.40;;;2.60;99.90;;;;;;5139239;27;20699;-59
2021/12/19 04:02:59;;;;;;;4.07;1.50;;;2.60;99.90;;;;;;5138956;27;20910;-58
2021/12/19 04:05:28;;;;;;;4.60;1.50;;;2.50;99.90;;;;;;5137867;27;20448;-58
2021/12/19 04:07:55;;;;;;;5.20;1.10;;;2.50;99.90;;;;;;5137075;27;20540;-58
2021/12/19 04:10:23;;;;;;;5.23;1.43;;;2.50;99.90;;;;;;5136875;27;20865;-58
2021/12/19 04:12:50;;;;;;;4.70;1.33;;;2.50;99.90;;;;;;5137363;27;20569;-58
2021/12/19 04:15:17;;;;;;;3.47;1.80;;;2.50;99.90;;;;;;5137076;27;20535;-58
2021/12/19 04:17:44;;;;;;;3.10;1.00;;;2.50;99.90;;;;;;5136862;27;20582;-59
2021/12/19 04:20:15;;;;;;;3.43;0.97;;;2.50;99.90;;;;;;5137417;27;20538;-59
2021/12/19 04:22:42;;;;;;;5.07;1.67;;;2.50;99.90;;;;;;5138478;27;20484;-59
2021/12/19 04:25:12;;;;;;;4.30;2.17;;;2.50;99.90;;;;;;5138371;27;20516;-59
2021/12/19 04:27:39;;;;;;;7.27;1.37;;;2.50;99.90;;;;;;5136528;27;20756;-59
2021/12/19 04:30:08;;;;;;;7.53;1.37;;;2.50;99.90;;;;;;5136669;27;20479;-58
2021/12/19 04:32:40;;;;;;;7.47;1.57;;;2.40;99.90;;;;;;5136452;27;20465;-58
2021/12/19 04:35:08;;;;;;;4.83;1.80;;;2.40;99.90;;;;;;5136906;27;20447;-58
2021/12/19 04:38:06;;;;;;;5.40;1.33;;;2.40;99.90;;;;;;5137161;27;20776;-59
2021/12/19 04:40:39;;;;;;;2.90;1.17;;;2.50;99.90;;;;;;5134841;27;20443;-59
2021/12/19 04:52:03;;;;;;;5.23;1.53;;;2.90;99.90;;;;;;5088259;27;20424;-59
2021/12/19 04:54:48;;;;;;;4.70;1.30;;;2.80;99.90;;;;;;5134496;27;20519;-59
2021/12/19 04:57:28;;;;;;;6.73;1.20;;;2.90;99.90;;;;;;5136471;27;20519;-59
2021/12/19 05:00:02;;;;;;;7.27;1.80;;;2.80;99.90;;;;;;5137743;27;20905;-58
2021/12/19 05:02:44;;;;;;;4.13;1.30;;;2.80;99.90;;;;;;5137470;27;20454;-59
2021/12/19 05:16:16;;;;;;;8.00;2.37;;;2.70;99.90;;;;;;5136797;27;20906;-58
2021/12/19 05:18:45;;;;;;;3.00;0.90;;;2.60;99.90;;;;;;5137533;27;20589;-60
2021/12/19 05:21:16;;;;;;;2.07;0.97;;;2.80;99.90;;;;;;5122497;27;20472;-59
2021/12/19 05:24:16;;;;;;;8.43;2.50;;;2.70;99.90;;;;;;5137249;27;20552;-59
2021/12/19 05:26:44;;;;;;;8.57;1.40;;;2.60;99.90;;;;;;5137275;27;20447;-59
2021/12/19 05:29:11;;;;;;;3.27;0.90;;;2.50;99.90;;;;;;5136717;27;20475;-59
2021/12/19 05:31:38;;;;;;;4.73;0.90;;;2.50;99.90;;;;;;5136423;27;20803;-58
2021/12/19 05:34:05;;;;;;;5.47;1.07;;;2.50;99.90;;;;;;5137097;27;20513;-58
2021/12/19 05:47:30;;;;;;;4.30;1.73;;;2.40;99.90;;;;;;5136247;27;20497;-59
2021/12/19 05:49:57;;;;;;;4.60;1.50;;;2.30;99.90;;;;;;5136701;27;20479;-59
2021/12/19 05:52:26;;;;;;;4.70;1.57;;;2.40;99.90;;;;;;5140356;27;20497;-60
2021/12/19 05:54:53;;;;;;;3.80;1.10;;;2.40;99.90;;;;;;5140704;27;20417;-59
2021/12/19 05:57:21;;;;;;;4.60;1.30;;;2.50;99.90;;;;;;5140225;27;20825;-59
2021/12/19 05:59:48;;;;;;;8.53;1.77;;;2.40;99.90;;;;;;5139526;27;20479;-58
2021/12/19 06:02:15;;;;;;;3.43;0.93;;;2.60;99.90;;;;;;5140715;27;20466;-59
2021/12/19 06:04:42;;;;;;;5.90;1.60;;;2.70;99.90;;;;;;5140500;27;20453;-59
2021/12/19 06:07:09;;;;;;;3.13;1.33;;;2.90;99.90;;;;;;5140476;27;20528;-59
2021/12/19 06:09:36;;;;;;;4.80;1.43;;;2.90;99.90;;;;;;5139529;27;20530;-58
2021/12/19 06:12:03;;;;;;;4.73;1.03;;;2.70;99.90;;;;;;5139373;27;20468;-58
2021/12/19 06:14:33;;;;;;;3.43;1.23;;;2.70;99.90;;;;;;5138914;27;20497;-59
2021/12/19 06:17:02;;;;;;;3.90;0.70;;;2.70;99.90;;;;;;5138937;27;20582;-58
2021/12/19 06:19:28;;;;;;;3.00;0.97;;;2.70;99.90;;;;;;5138503;27;20813;-59
2021/12/19 06:21:55;;;;;;;2.93;1.00;;;2.70;99.90;;;;;;5138892;27;20585;-58
2021/12/19 06:24:23;;;;;;;4.60;0.90;;;2.60;99.90;;;;;;5139189;27;20535;-59
2021/12/19 06:26:49;;;;;;;2.87;1.43;;;2.50;99.90;;;;;;5139559;27;20422;-59
2021/12/19 06:29:16;;;;;;;1.90;1.10;;;2.60;99.90;;;;;;5140069;27;20888;-59
2021/12/19 06:31:44;;;;;;;3.33;0.93;;;2.60;99.90;;;;;;5140297;27;20490;-58
2021/12/19 06:34:11;;;;;;;2.10;0.57;;;2.50;99.90;;;;;;5140361;27;20777;-58
2021/12/19 06:36:40;;;;;;;3.80;1.27;;;2.50;99.90;;;;;;5140188;27;20579;-59
2021/12/19 06:39:07;;;;;;;5.50;1.10;;;2.30;99.90;;;;;;5138853;27;20433;-59
2021/12/19 06:41:36;;;;;;;5.37;1.33;;;2.20;99.90;;;;;;5138360;27;20806;-59
2021/12/19 06:44:03;;;;;;;4.50;1.43;;;2.10;99.90;;;;;;5139183;27;20448;-59
2021/12/19 06:46:30;;;;;;;4.47;1.30;;;2.00;99.90;;;;;;5138216;27;20483;-59
2021/12/19 06:48:58;;;;;;;3.97;1.20;;;1.90;99.90;;;;;;5137773;27;20970;-58
2021/12/19 06:51:25;;;;;;;1.20;0.80;;;1.90;99.90;;;;;;5138740;27;20479;-59
2021/12/19 06:53:52;;;;;;;1.93;0.70;;;1.90;99.90;;;;;;5138134;27;20818;-58
2021/12/19 06:56:19;;;;;;;2.47;0.90;;;1.80;99.90;;;;;;5138506;27;20479;-58
2021/12/19 06:58:46;;;;;;;3.20;1.20;;;1.80;99.90;;;;;;5138640;27;20926;-60
2021/12/19 07:01:13;;;;;;;2.03;0.90;;;1.90;99.90;;;;;;5138830;27;20468;-58
2021/12/19 07:03:40;;;;;;;3.10;0.70;;;1.90;99.90;;;;;;5138848;27;20513;-60
2021/12/19 07:06:08;;;;;;;2.50;1.00;;;1.80;99.90;;;;;;5139951;27;20898;-59
2021/12/19 07:08:35;;;;;;;4.73;1.27;;;1.80;99.90;;;;;;5138403;27;20468;-59
2021/12/19 07:11:02;;;;;;;2.23;0.63;;;1.80;99.90;;;;;;5138473;27;20546;-58
2021/12/19 07:13:29;;;;;;;3.87;0.80;;;1.70;99.90;;;;;;5138154;27;20968;-59
2021/12/19 07:15:57;;;;;;;3.40;0.80;;;1.70;99.90;;;;;;5138996;27;20522;-59
2021/12/19 07:18:24;;;;;;;1.70;0.67;;;1.70;99.90;;;;;;5138466;27;20549;-59
2021/12/19 07:20:51;;;;;;;1.87;0.80;;;1.80;99.90;;;;;;5138971;27;20946;-58
2021/12/19 07:23:21;;;;;;;2.20;0.93;;;1.80;99.90;;;;;;5138339;27;20953;-58
2021/12/19 07:25:48;;;;;;;5.90;1.40;;;1.70;99.90;;;;;;5137961;27;20813;-58
2021/12/19 07:28:15;;;;;;;1.30;1.00;;;1.70;99.90;;;;;;5136869;27;20543;-58
2021/12/19 07:30:43;;;;;;;3.00;0.77;;;1.70;99.90;;;;;;5136010;27;20467;-58
2021/12/19 07:33:11;;;;;;;3.43;1.17;;;1.70;99.90;;;;;;5136119;27;20552;-58
2021/12/19 07:35:41;;;;;;;2.13;0.63;;;1.80;99.90;;;;;;5134089;27;20801;-59
2021/12/19 07:38:11;;;;;;;3.53;1.33;;;1.80;99.90;;;;;;5133528;27;20934;-58
2021/12/19 07:40:46;;;;;;;1.63;0.70;;;1.80;99.90;;;;;;5134982;27;20448;-59
2021/12/19 07:43:13;;;;;;;2.33;0.97;;;1.80;99.90;;;;;;5134642;27;20455;-59
2021/12/19 07:45:40;;;;;;;1.20;0.60;;;1.80;99.90;;;;;;5134559;27;20535;-59
2021/12/19 07:48:07;;;;;;;2.23;1.03;;;1.80;99.90;;;;;;5134642;27;20487;-59
2021/12/19 07:50:35;;;;;;;5.03;1.20;;;1.80;99.90;;;;;;5137861;27;20472;-59
2021/12/19 07:53:03;;;;;;;1.40;0.63;;;1.80;99.90;;;;;;5137176;27;20456;-59
2021/12/19 07:55:30;;;;;;;2.40;0.57;;;1.80;99.90;;;;;;5137264;27;20418;-59
2021/12/19 07:57:59;;;;;;;3.87;0.80;;;1.70;99.90;;;;;;5137827;27;20570;-59
2021/12/19 08:00:29;;;;;;;2.30;0.70;;;1.80;99.90;;;;;;5137594;27;20814;-60
2021/12/19 08:02:56;;;;;;;2.40;0.70;;;1.90;99.90;;;;;;5138796;27;20534;-59
2021/12/19 08:05:23;;;;;;;3.50;0.50;;;2.00;99.90;;;;;;5138691;27;20527;-59
2021/12/19 08:07:55;;;;;;;3.87;1.00;;;2.00;99.90;;;;;;5137349;27;20484;-59
2021/12/19 08:13:09;;;;;;;4.63;1.67;;;2.10;99.90;;;;;;5137801;27;20751;-58
2021/12/19 08:15:38;;;;;;;1.30;0.70;;;2.00;99.90;;;;;;5138251;27;20476;-58
2021/12/19 08:18:05;;;;;;;3.30;0.67;;;2.00;99.90;;;;;;5135398;27;20566;-59
2021/12/19 08:20:32;;;;;;;1.33;0.87;;;2.00;99.90;;;;;;5126543;27;20918;-59
2021/12/19 08:22:59;;;;;;;1.17;0.43;;;2.20;99.90;;;;;;5122679;27;20570;-59
2021/12/19 08:25:27;;;;;;;1.50;0.70;;;2.10;99.90;;;;;;5136433;27;20446;-59
2021/12/19 08:27:55;;;;;;;1.80;1.00;;;2.20;99.90;;;;;;5137132;27;20447;-59
2021/12/19 08:30:24;;;;;;;1.70;0.90;;;2.20;99.90;;;;;;5137167;27;20514;-59
2021/12/19 08:32:52;;;;;;;2.17;0.77;;;2.10;99.90;;;;;;5123998;27;20426;-57
2021/12/19 08:35:20;;;;;;;1.37;0.63;;;2.20;99.90;;;;;;5138374;27;20466;-58
2021/12/19 08:37:47;;;;;;;1.23;0.70;;;2.20;99.90;;;;;;5137051;27;20483;-58
2021/12/19 08:40:14;;;;;;;1.30;0.57;;;2.20;99.90;;;;;;5129420;27;20755;-59
2021/12/19 08:42:41;;;;;;;0.97;0.67;;;2.20;99.90;;;;;;5135132;27;20824;-58
2021/12/19 08:45:09;;;;;;;1.20;0.50;;;2.20;99.90;;;;;;5135580;27;20444;-59
2021/12/19 08:47:40;;;;;;;2.50;0.80;;;2.20;99.90;;;;;;5136590;27;20509;-58
2021/12/19 08:50:10;;;;;;;1.37;0.53;;;2.20;99.90;;;;;;5133567;27;20849;-59
2021/12/19 08:52:37;;;;;;;2.43;0.50;;;2.30;99.90;;;;;;5134787;27;20778;-59
2021/12/19 08:55:06;;;;;;;4.07;0.80;;;2.30;99.90;;;;;;5132841;27;20450;-59
2021/12/19 08:57:32;;;;;;;1.87;0.90;;;2.30;99.90;;;;;;5134901;27;21178;-58
2021/12/19 09:00:01;;;;;;;2.30;0.57;;;2.40;99.90;;;;;;5135359;27;20933;-59
2021/12/19 09:02:31;;;;;;;1.57;0.63;;;2.60;99.90;;;;;;5131496;27;20457;-59
2021/12/19 09:04:59;;;;;;;1.00;0.60;;;2.50;99.90;;;;;;5133624;27;20447;-58
2021/12/19 09:07:28;;;;;;;1.93;0.63;;;2.50;99.90;;;;;;5133945;27;21071;-59
2021/12/19 09:09:55;;;;;;;0.93;0.40;;;2.50;99.90;;;;;;5132073;27;20822;-59
2021/12/19 09:12:22;;;;;;;1.50;0.60;;;2.40;99.90;;;;;;5134360;27;20537;-59
2021/12/19 09:14:49;;;;;;;1.63;0.33;;;2.40;99.90;;;;;;5136414;27;20535;-59
2021/12/19 09:17:16;;;;;;;1.83;0.47;;;2.50;99.90;;;;;;5135413;27;20468;-59
2021/12/19 09:19:45;;;;;;;1.60;0.50;;;2.50;99.90;;;;;;5134583;27;20920;-59
2021/12/19 09:22:16;;;;;;;1.50;0.53;;;2.60;99.90;;;;;;5122367;27;20461;-59
2021/12/19 09:24:43;;;;;;;2.63;0.67;;;2.60;99.90;;;;;;5115964;28;20491;-59
2021/12/19 09:27:10;;;;;;;1.03;0.40;;;2.60;99.90;;;;;;5102014;28;20528;-59
2021/12/19 09:29:37;;;;;;;2.00;0.40;;;2.50;99.90;;;;;;5111032;28;20671;-59
2021/12/19 09:32:05;;;;;;;0.70;0.40;;;2.50;99.90;;;;;;5118294;27;20543;-59
2021/12/19 09:34:33;;;;;;;3.03;0.50;;;2.60;99.90;;;;;;5113552;27;20861;-59
2021/12/19 09:37:02;;;;;;;1.10;0.50;;;2.60;99.90;;;;;;5108077;28;20474;-59
2021/12/19 09:39:32;;;;;;;4.73;0.50;;;2.60;99.90;;;;;;5117536;27;20709;-59
2021/12/19 09:42:07;;;;;;;0.87;0.40;;;2.60;99.90;;;;;;5107230;28;20521;-60
2021/12/19 09:44:38;;;;;;;0.90;0.40;;;2.60;99.90;;;;;;5108288;28;20449;-59
2021/12/19 09:47:07;;;;;;;0.80;0.43;;;2.60;99.90;;;;;;5110748;28;20435;-59
2021/12/19 09:49:40;;;;;;;1.17;0.47;;;2.60;99.90;;;;;;5107119;28;20689;-59
2021/12/19 09:52:09;;;;;;;1.80;0.63;;;2.80;99.90;;;;;;5107160;28;20423;-59
2021/12/19 09:54:41;;;;;;;0.60;0.40;;;2.80;99.90;;;;;;5123874;28;20859;-59
2021/12/19 09:57:08;;;;;;;1.67;0.47;;;2.80;99.90;;;;;;5095387;28;20539;-59
2021/12/19 09:59:38;;;;;;;1.00;0.50;;;2.90;99.90;;;;;;5122744;28;20481;-59
2021/12/19 10:02:05;;;;;;;0.70;0.40;;;3.00;99.90;;;;;;5110446;28;20448;-59
2021/12/19 10:04:36;;;;;;;0.63;0.30;;;3.10;99.90;;;;;;5116056;28;20477;-59
2021/12/19 10:07:10;;;;;;;0.60;0.30;;;3.10;99.90;;;;;;5110841;28;20456;-59
2021/12/19 10:09:43;;;;;;;1.20;0.40;;;3.20;99.90;;;;;;5111307;28;20437;-59
2021/12/19 10:12:36;;;;;;;0.93;0.40;;;3.20;99.90;;;;;;5112838;28;20457;-59
2021/12/19 10:15:06;;;;;;;0.73;0.40;;;3.20;99.90;;;;;;5121762;28;20463;-59
2021/12/19 10:17:33;;;;;;;0.80;0.40;;;3.10;99.90;;;;;;5107853;28;20428;-59
2021/12/19 10:20:02;;;;;;;0.70;0.40;;;3.00;99.90;;;;;;5116862;28;20443;-59
2021/12/19 10:22:31;;;;;;;0.73;0.30;;;2.90;99.90;;;;;;5113820;27;20542;-59
2021/12/19 10:25:13;;;;;;;0.80;0.33;;;3.00;99.90;;;;;;5113120;28;20759;-59
2021/12/19 10:27:42;;;;;;;0.87;0.40;;;3.10;99.90;;;;;;5114286;28;20797;-60
2021/12/19 10:30:19;;;;;;;0.40;0.23;;;3.10;99.90;;;;;;5113280;28;20799;-59
2021/12/19 10:32:53;;;;;;;0.80;0.43;;;3.10;99.90;;;;;;5111141;28;20452;-59
2021/12/19 10:35:22;;;;;;;1.13;0.33;;;3.10;99.90;;;;;;5110879;28;20807;-59
2021/12/19 10:37:52;;;;;;;0.60;0.30;;;3.30;99.90;;;;;;5114632;28;20487;-59
2021/12/19 10:40:22;;;;;;;1.00;0.40;;;3.60;99.90;;;;;;5116215;28;20480;-59
2021/12/19 10:42:57;;;;;;;2.03;0.50;;;3.80;99.90;;;;;;5117165;28;20588;-58
2021/12/19 10:45:46;;;;;;;0.40;0.20;;;4.10;99.90;;;;;;5116659;28;20419;-59
2021/12/19 10:48:32;;;;;;;0.60;0.30;;;4.30;99.90;;;;;;5115673;28;20843;-59
2021/12/19 10:51:05;;;;;;;0.70;0.30;;;4.20;99.90;;;;;;5116622;28;20440;-59
2021/12/19 10:53:36;;;;;;;0.60;0.30;;;4.00;99.90;;;;;;5117820;28;21173;-59
2021/12/19 10:56:09;;;;;;;0.60;0.33;;;3.90;99.90;;;;;;5117131;27;20483;-59
2021/12/19 10:58:42;;;;;;;0.50;0.20;;;3.90;99.90;;;;;;5126243;27;20555;-59
2021/12/19 11:01:18;;;;;;;1.83;0.40;;;4.00;99.90;;;;;;5114167;28;20445;-58
2021/12/19 11:03:57;;;;;;;1.03;0.50;;;3.90;99.90;;;;;;5116307;28;20826;-59
2021/12/19 11:06:34;;;;;;;0.90;0.40;;;4.00;99.90;;;;;;5116334;28;20484;-60
2021/12/19 11:09:05;;;;;;;0.50;0.33;;;4.00;99.90;;;;;;5110430;28;21055;-59
2021/12/19 11:11:43;;;;;;;0.67;0.30;;;3.90;99.90;;;;;;5116346;28;20448;-59
2021/12/19 11:14:11;;;;;;;0.80;0.40;;;3.80;99.90;;;;;;5115914;28;20455;-59
2021/12/19 11:16:38;;;;;;;1.53;0.40;;;3.70;99.90;;;;;;5115674;28;20991;-59
2021/12/19 11:19:06;;;;;;;1.10;0.33;;;3.60;99.90;;;;;;5115686;28;20655;-59
2021/12/19 11:21:37;;;;;;;1.40;0.60;;;3.70;99.90;;;;;;5114667;28;20666;-59
2021/12/19 11:24:06;;;;;;;1.17;0.33;;;3.60;99.90;;;;;;5114215;28;20448;-59
2021/12/19 11:26:34;;;;;;;0.63;0.40;;;3.60;99.90;;;;;;5113429;28;20510;-59
2021/12/19 11:29:03;;;;;;;0.67;0.40;;;3.60;99.90;;;;;;5113482;28;20737;-59
2021/12/19 11:31:31;;;;;;;0.63;0.30;;;3.60;99.90;;;;;;5112492;28;20530;-59
2021/12/19 11:34:26;;;;;;;0.77;0.40;;;3.60;99.90;;;;;;5113931;28;20444;-59
2021/12/19 11:37:00;;;;;;;1.17;0.43;;;3.70;99.90;;;;;;5088948;28;20567;-59
2021/12/19 11:39:32;;;;;;;1.43;0.30;;;3.70;99.90;;;;;;5112695;28;20565;-59
2021/12/19 11:42:05;;;;;;;1.17;0.50;;;3.40;99.90;;;;;;5115573;28;20555;-59
2021/12/19 11:44:38;;;;;;;1.10;0.50;;;3.30;99.90;;;;;;5114672;28;20468;-59
2021/12/19 11:47:11;;;;;;;1.40;0.50;;;3.30;99.90;;;;;;5102628;28;20434;-60
2021/12/19 11:49:41;;;;;;;1.20;0.40;;;3.40;99.90;;;;;;5114933;28;20439;-59
2021/12/19 11:52:26;;;;;;;1.40;0.67;;;3.40;99.90;;;;;;5115841;28;20444;-59
2021/12/19 11:55:18;;;;;;;0.60;0.37;;;3.40;99.90;;;;;;5113791;28;20906;-59
2021/12/19 11:58:22;;;;;;;0.70;0.40;;;3.50;99.90;;;;;;5112899;28;20449;-59
2021/12/19 12:01:00;;;;;;;0.80;0.40;;;3.40;99.90;;;;;;5110152;28;20448;-59
2021/12/19 12:03:33;;;;;;;0.60;0.40;;;3.40;99.90;;;;;;5110965;28;20700;-59
2021/12/19 12:06:24;;;;;;;0.63;0.30;;;3.30;99.90;;;;;;5112852;28;20456;-60
2021/12/19 12:09:22;;;;;;;1.30;0.50;;;3.30;99.90;;;;;;5097353;28;20787;-59
2021/12/19 12:12:33;;;;;;;1.10;0.40;;;3.20;99.90;;;;;;5093941;28;20480;-59
2021/12/19 12:15:08;;;;;;;1.00;0.40;;;3.40;99.90;;;;;;5103863;28;20997;-59
2021/12/19 12:17:53;;;;;;;1.07;0.53;;;3.60;99.90;;;;;;5113192;28;20476;-59
2021/12/19 12:20:30;;;;;;;0.70;0.40;;;3.60;99.90;;;;;;5114704;28;20843;-59
2021/12/19 12:23:05;;;;;;;0.80;0.40;;;3.70;99.90;;;;;;5132353;27;20454;-59
2021/12/19 12:25:34;;;;;;;0.90;0.50;;;3.40;99.90;;;;;;5115246;27;20418;-59
2021/12/19 12:28:08;;;;;;;1.20;0.50;;;3.40;99.90;;;;;;5133326;27;20451;-59
2021/12/19 12:30:41;;;;;;;0.90;0.50;;;3.40;99.90;;;;;;5132470;27;20478;-59
2021/12/19 12:33:15;;;;;;;0.67;0.43;;;3.50;99.90;;;;;;5130533;27;20427;-59
2021/12/19 12:35:46;;;;;;;1.97;0.53;;;3.40;99.90;;;;;;5129168;27;20443;-59
2021/12/19 12:38:15;;;;;;;1.33;0.70;;;3.50;99.90;;;;;;5133055;27;20483;-59
2021/12/19 12:40:48;;;;;;;2.33;1.30;;;3.80;99.90;;;;;;5131645;27;20448;-59
2021/12/19 12:43:17;;;;;;;2.83;0.70;;;4.00;99.90;;;;;;5134171;27;20455;-58
2021/12/19 12:45:51;;;;;;;1.50;0.47;;;4.10;99.90;;;;;;5131746;27;20813;-59
2021/12/19 12:48:50;;;;;;;2.50;0.70;;;4.20;99.90;;;;;;5134372;27;20799;-58
2021/12/19 12:51:23;;;;;;;1.03;0.50;;;4.10;99.90;;;;;;5111501;27;20450;-59
2021/12/19 12:53:53;;;;;;;2.50;0.60;;;4.10;99.90;;;;;;5134661;27;20450;-59
2021/12/19 12:56:23;;;;;;;1.43;0.80;;;4.20;99.90;;;;;;5118837;27;20432;-59
2021/12/19 12:58:53;;;;;;;0.70;0.43;;;4.30;99.90;;;;;;5134210;27;20482;-58
2021/12/19 13:01:28;;;;;;;1.53;0.60;;;4.10;99.90;;;;;;5133593;27;20754;-58
2021/12/19 13:04:14;;;;;;;1.20;0.60;;;3.70;99.90;;;;;;5131146;27;20506;-59
2021/12/19 13:06:50;;;;;;;1.27;0.53;;;3.50;99.90;;;;;;5123525;27;20447;-59
2021/12/19 13:09:21;;;;;;;0.93;0.43;;;3.70;99.90;;;;;;5130664;27;20436;-59
2021/12/19 13:11:53;;;;;;;1.20;0.50;;;3.80;99.90;;;;;;5132132;27;20459;-59
2021/12/19 13:14:29;;;;;;;1.30;0.60;;;4.00;99.90;;;;;;5134480;27;20870;-60
2021/12/19 13:17:01;;;;;;;2.60;0.60;;;3.90;99.90;;;;;;5109333;27;20433;-59
2021/12/19 13:19:46;;;;;;;1.90;0.60;;;3.90;99.90;;;;;;5135416;27;20454;-59
2021/12/19 13:22:15;;;;;;;1.90;0.73;;;4.00;99.90;;;;;;5135297;27;20461;-60
2021/12/19 13:24:49;;;;;;;0.83;0.43;;;3.80;99.90;;;;;;5134801;27;20489;-60
2021/12/19 13:27:19;;;;;;;0.90;0.50;;;3.60;99.90;;;;;;5135553;27;20488;-60
2021/12/19 13:30:02;;;;;;;1.93;0.70;;;3.50;99.90;;;;;;5134960;27;20539;-60
2021/12/19 13:32:37;;;;;;;1.10;0.50;;;3.50;99.90;;;;;;5133608;27;20452;-60
2021/12/19 13:35:12;;;;;;;1.20;0.60;;;3.50;99.90;;;;;;5133813;27;20435;-59
2021/12/19 13:38:00;;;;;;;0.93;0.50;;;3.70;99.90;;;;;;5133239;27;20537;-60
2021/12/19 13:40:30;;;;;;;2.73;0.57;;;3.70;99.90;;;;;;5133205;27;20506;-60
2021/12/19 13:43:00;;;;;;;1.70;0.60;;;3.60;99.90;;;;;;5134538;28;21420;-60
2021/12/19 13:45:48;;;;;;;1.40;0.50;;;3.80;99.90;;;;;;5133876;28;20509;-60
2021/12/19 13:48:29;;;;;;;1.40;0.57;;;4.10;99.90;;;;;;5134420;28;20451;-60
2021/12/19 13:51:12;;;;;;;2.13;0.90;;;4.10;99.90;;;;;;5132258;28;20532;-60
2021/12/19 13:53:42;;;;;;;1.40;0.67;;;3.70;99.90;;;;;;5132214;28;20866;-60
2021/12/19 13:56:16;;;;;;;1.50;0.60;;;3.60;99.90;;;;;;5130398;28;20441;-60
2021/12/19 13:58:49;;;;;;;1.20;0.53;;;3.70;99.90;;;;;;5130473;28;21050;-60
2021/12/19 14:01:29;;;;;;;1.37;0.80;;;3.70;99.90;;;;;;5117732;28;20497;-59
2021/12/19 14:04:05;;;;;;;1.00;0.60;;;3.60;99.90;;;;;;5131715;28;20500;-60
2021/12/19 14:06:50;;;;;;;2.17;0.83;;;3.40;99.90;;;;;;5129030;28;20681;-60
2021/12/19 14:09:28;;;;;;;5.30;1.00;;;3.40;99.90;;;;;;5130220;28;20417;-60
2021/12/19 14:12:15;;;;;;;1.40;0.80;;;3.50;99.90;;;;;;5135640;27;20447;-59